sensor_id;sensor_type;location;lat;lon;timestamp;P1;durP1;ratioP1;P2;durP2;ratioP2
69837;SDS011;57135;51.992;4.476;2023-06-24T00:01:12;3.55;;;3.48;;
69837;SDS011;57135;51.992;4.476;2023-06-24T00:03:38;3.64;;;3.55;;
69837;SDS011;57135;51.992;4.476;2023-06-24T00:06:04;3.56;;;3.49;;
69837;SDS011;57135;51.992;4.476;2023-06-24T00:08:29;3.64;;;3.57;;
69837;SDS011;57135;51.992;4.476;2023-06-24T00:11:00;3.63;;;3.57;;
69837;SDS011;57135;51.992;4.476;2023-06-24T00:13:27;3.71;;;3.65;;
69837;SDS011;57135;51.992;4.476;2023-06-24T00:15:54;3.68;;;3.64;;
69837;SDS011;57135;51.992;4.476;2023-06-24T00:18:20;3.36;;;3.36;;
69837;SDS011;57135;51.992;4.476;2023-06-24T00:20:45;3.69;;;3.69;;
69837;SDS011;57135;51.992;4.476;2023-06-24T00:23:12;3.80;;;3.79;;
69837;SDS011;57135;51.992;4.476;2023-06-24T00:25:39;3.60;;;3.59;;
69837;SDS011;57135;51.992;4.476;2023-06-24T00:28:05;3.77;;;3.77;;
69837;SDS011;57135;51.992;4.476;2023-06-24T00:30:30;3.70;;;3.69;;
69837;SDS011;57135;51.992;4.476;2023-06-24T00:32:56;3.67;;;3.65;;
69837;SDS011;57135;51.992;4.476;2023-06-24T00:35:21;3.63;;;3.63;;
69837;SDS011;57135;51.992;4.476;2023-06-24T00:37:47;4.02;;;4.00;;
69837;SDS011;57135;51.992;4.476;2023-06-24T00:40:12;4.03;;;3.99;;
69837;SDS011;57135;51.992;4.476;2023-06-24T00:42:42;3.83;;;3.80;;
69837;SDS011;57135;51.992;4.476;2023-06-24T00:45:10;3.88;;;3.83;;
69837;SDS011;57135;51.992;4.476;2023-06-24T00:47:36;3.84;;;3.76;;
69837;SDS011;57135;51.992;4.476;2023-06-24T00:50:02;3.99;;;3.95;;
69837;SDS011;57135;51.992;4.476;2023-06-24T00:52:27;3.71;;;3.70;;
69837;SDS011;57135;51.992;4.476;2023-06-24T00:54:53;3.98;;;3.97;;
69837;SDS011;57135;51.992;4.476;2023-06-24T00:57:18;4.10;;;4.07;;
69837;SDS011;57135;51.992;4.476;2023-06-24T00:59:49;3.88;;;3.81;;
69837;SDS011;57135;51.992;4.476;2023-06-24T01:02:18;4.18;;;4.16;;
69837;SDS011;57135;51.992;4.476;2023-06-24T01:04:46;4.15;;;4.14;;
69837;SDS011;57135;51.992;4.476;2023-06-24T01:07:13;4.22;;;4.17;;
69837;SDS011;57135;51.992;4.476;2023-06-24T01:09:39;4.18;;;4.11;;
69837;SDS011;57135;51.992;4.476;2023-06-24T01:12:06;4.34;;;4.30;;
69837;SDS011;57135;51.992;4.476;2023-06-24T01:14:33;4.38;;;4.36;;
69837;SDS011;57135;51.992;4.476;2023-06-24T01:17:03;4.27;;;4.24;;
69837;SDS011;57135;51.992;4.476;2023-06-24T01:34:20;4.29;;;4.28;;
69837;SDS011;57135;51.992;4.476;2023-06-24T01:37:11;4.57;;;4.54;;
69837;SDS011;57135;51.992;4.476;2023-06-24T01:40:29;4.67;;;4.62;;
69837;SDS011;57135;51.992;4.476;2023-06-24T01:42:35;4.70;;;4.66;;
69837;SDS011;57135;51.992;4.476;2023-06-24T01:45:03;4.48;;;4.46;;
69837;SDS011;57135;51.992;4.476;2023-06-24T01:47:32;4.42;;;4.42;;
69837;SDS011;57135;51.992;4.476;2023-06-24T01:49:59;4.57;;;4.57;;
69837;SDS011;57135;51.992;4.476;2023-06-24T01:52:27;4.33;;;4.33;;
69837;SDS011;57135;51.992;4.476;2023-06-24T01:54:55;4.66;;;4.64;;
69837;SDS011;57135;51.992;4.476;2023-06-24T01:57:21;4.78;;;4.75;;
69837;SDS011;57135;51.992;4.476;2023-06-24T01:59:48;4.58;;;4.57;;
69837;SDS011;57135;51.992;4.476;2023-06-24T02:02:17;4.57;;;4.56;;
69837;SDS011;57135;51.992;4.476;2023-06-24T02:04:45;4.58;;;4.53;;
69837;SDS011;57135;51.992;4.476;2023-06-24T02:07:12;4.63;;;4.58;;
69837;SDS011;57135;51.992;4.476;2023-06-24T02:09:39;4.89;;;4.83;;
69837;SDS011;57135;51.992;4.476;2023-06-24T02:12:08;4.65;;;4.64;;
69837;SDS011;57135;51.992;4.476;2023-06-24T02:14:34;5.01;;;4.98;;
69837;SDS011;57135;51.992;4.476;2023-06-24T02:17:02;5.18;;;5.12;;
69837;SDS011;57135;51.992;4.476;2023-06-24T02:19:30;4.92;;;4.89;;
69837;SDS011;57135;51.992;4.476;2023-06-24T02:21:56;5.52;;;5.50;;
69837;SDS011;57135;51.992;4.476;2023-06-24T02:24:24;5.89;;;5.85;;
69837;SDS011;57135;51.992;4.476;2023-06-24T02:26:51;5.66;;;5.64;;
69837;SDS011;57135;51.992;4.476;2023-06-24T02:29:17;5.50;;;5.42;;
69837;SDS011;57135;51.992;4.476;2023-06-24T02:31:43;5.42;;;5.35;;
69837;SDS011;57135;51.992;4.476;2023-06-24T02:34:08;5.53;;;5.48;;
69837;SDS011;57135;51.992;4.476;2023-06-24T02:36:34;5.37;;;5.32;;
69837;SDS011;57135;51.992;4.476;2023-06-24T02:39:00;5.62;;;5.54;;
69837;SDS011;57135;51.992;4.476;2023-06-24T02:41:25;5.34;;;5.29;;
69837;SDS011;57135;51.992;4.476;2023-06-24T02:43:52;5.60;;;5.56;;
69837;SDS011;57135;51.992;4.476;2023-06-24T02:46:18;5.69;;;5.69;;
69837;SDS011;57135;51.992;4.476;2023-06-24T02:48:46;5.85;;;5.84;;
69837;SDS011;57135;51.992;4.476;2023-06-24T02:51:13;5.90;;;5.89;;
69837;SDS011;57135;51.992;4.476;2023-06-24T02:53:39;5.89;;;5.88;;
69837;SDS011;57135;51.992;4.476;2023-06-24T02:56:05;5.59;;;5.55;;
69837;SDS011;57135;51.992;4.476;2023-06-24T02:58:32;5.90;;;5.88;;
69837;SDS011;57135;51.992;4.476;2023-06-24T03:01:03;5.85;;;5.84;;
69837;SDS011;57135;51.992;4.476;2023-06-24T03:03:32;6.35;;;6.30;;
69837;SDS011;57135;51.992;4.476;2023-06-24T03:05:58;6.67;;;6.61;;
69837;SDS011;57135;51.992;4.476;2023-06-24T03:08:24;6.10;;;6.05;;
69837;SDS011;57135;51.992;4.476;2023-06-24T03:10:59;6.18;;;6.17;;
69837;SDS011;57135;51.992;4.476;2023-06-24T03:13:24;6.38;;;6.33;;
69837;SDS011;57135;51.992;4.476;2023-06-24T03:15:50;6.71;;;6.64;;
69837;SDS011;57135;51.992;4.476;2023-06-24T03:18:16;6.94;;;6.88;;
69837;SDS011;57135;51.992;4.476;2023-06-24T03:20:42;6.73;;;6.69;;
69837;SDS011;57135;51.992;4.476;2023-06-24T03:23:08;6.68;;;6.61;;
69837;SDS011;57135;51.992;4.476;2023-06-24T03:25:34;6.56;;;6.55;;
69837;SDS011;57135;51.992;4.476;2023-06-24T03:28:00;6.38;;;6.32;;
69837;SDS011;57135;51.992;4.476;2023-06-24T03:30:29;6.29;;;6.25;;
69837;SDS011;57135;51.992;4.476;2023-06-24T03:32:55;6.74;;;6.70;;
69837;SDS011;57135;51.992;4.476;2023-06-24T03:35:22;6.33;;;6.30;;
69837;SDS011;57135;51.992;4.476;2023-06-24T03:37:48;6.10;;;6.03;;
69837;SDS011;57135;51.992;4.476;2023-06-24T03:40:13;5.89;;;5.83;;
69837;SDS011;57135;51.992;4.476;2023-06-24T03:42:39;5.60;;;5.55;;
69837;SDS011;57135;51.992;4.476;2023-06-24T03:45:04;6.86;;;6.74;;
69837;SDS011;57135;51.992;4.476;2023-06-24T03:47:30;6.30;;;6.24;;
69837;SDS011;57135;51.992;4.476;2023-06-24T03:49:56;6.94;;;6.85;;
69837;SDS011;57135;51.992;4.476;2023-06-24T03:52:21;6.75;;;6.68;;
69837;SDS011;57135;51.992;4.476;2023-06-24T03:54:47;6.88;;;6.84;;
69837;SDS011;57135;51.992;4.476;2023-06-24T03:57:12;7.08;;;6.95;;
69837;SDS011;57135;51.992;4.476;2023-06-24T03:59:38;7.15;;;7.04;;
69837;SDS011;57135;51.992;4.476;2023-06-24T04:02:04;6.82;;;6.75;;
69837;SDS011;57135;51.992;4.476;2023-06-24T04:04:36;7.33;;;7.19;;
69837;SDS011;57135;51.992;4.476;2023-06-24T04:07:02;7.45;;;7.39;;
69837;SDS011;57135;51.992;4.476;2023-06-24T04:09:32;7.62;;;7.52;;
69837;SDS011;57135;51.992;4.476;2023-06-24T04:11:58;7.93;;;7.74;;
69837;SDS011;57135;51.992;4.476;2023-06-24T04:14:24;7.72;;;7.60;;
69837;SDS011;57135;51.992;4.476;2023-06-24T04:16:49;7.62;;;7.52;;
69837;SDS011;57135;51.992;4.476;2023-06-24T04:19:15;8.28;;;8.11;;
69837;SDS011;57135;51.992;4.476;2023-06-24T04:21:42;7.94;;;7.74;;
69837;SDS011;57135;51.992;4.476;2023-06-24T04:24:08;7.73;;;7.67;;
69837;SDS011;57135;51.992;4.476;2023-06-24T04:26:33;8.01;;;7.93;;
69837;SDS011;57135;51.992;4.476;2023-06-24T04:28:59;8.11;;;8.03;;
69837;SDS011;57135;51.992;4.476;2023-06-24T04:31:24;8.09;;;7.94;;
69837;SDS011;57135;51.992;4.476;2023-06-24T04:33:50;8.43;;;8.26;;
69837;SDS011;57135;51.992;4.476;2023-06-24T04:36:16;8.28;;;8.18;;
69837;SDS011;57135;51.992;4.476;2023-06-24T04:38:41;8.27;;;8.14;;
69837;SDS011;57135;51.992;4.476;2023-06-24T04:41:07;8.13;;;8.02;;
69837;SDS011;57135;51.992;4.476;2023-06-24T04:43:32;8.19;;;8.14;;
69837;SDS011;57135;51.992;4.476;2023-06-24T04:45:58;8.27;;;8.15;;
69837;SDS011;57135;51.992;4.476;2023-06-24T04:48:24;8.21;;;8.09;;
69837;SDS011;57135;51.992;4.476;2023-06-24T04:50:49;8.12;;;7.91;;
69837;SDS011;57135;51.992;4.476;2023-06-24T04:53:15;8.46;;;8.22;;
69837;SDS011;57135;51.992;4.476;2023-06-24T04:55:41;8.42;;;8.23;;
69837;SDS011;57135;51.992;4.476;2023-06-24T04:58:06;8.39;;;8.13;;
69837;SDS011;57135;51.992;4.476;2023-06-24T05:00:32;8.50;;;8.26;;
69837;SDS011;57135;51.992;4.476;2023-06-24T05:02:57;8.46;;;8.31;;
69837;SDS011;57135;51.992;4.476;2023-06-24T05:05:23;8.52;;;8.34;;
69837;SDS011;57135;51.992;4.476;2023-06-24T05:07:48;8.33;;;8.21;;
69837;SDS011;57135;51.992;4.476;2023-06-24T05:10:14;8.30;;;8.28;;
69837;SDS011;57135;51.992;4.476;2023-06-24T05:12:39;8.32;;;8.18;;
69837;SDS011;57135;51.992;4.476;2023-06-24T05:15:05;8.68;;;8.53;;
69837;SDS011;57135;51.992;4.476;2023-06-24T05:17:31;8.61;;;8.37;;
69837;SDS011;57135;51.992;4.476;2023-06-24T05:19:56;9.08;;;8.93;;
69837;SDS011;57135;51.992;4.476;2023-06-24T05:22:22;9.17;;;8.94;;
69837;SDS011;57135;51.992;4.476;2023-06-24T05:24:48;9.55;;;9.40;;
69837;SDS011;57135;51.992;4.476;2023-06-24T05:27:13;8.99;;;8.93;;
69837;SDS011;57135;51.992;4.476;2023-06-24T05:29:39;9.30;;;9.15;;
69837;SDS011;57135;51.992;4.476;2023-06-24T05:32:04;9.71;;;9.42;;
69837;SDS011;57135;51.992;4.476;2023-06-24T05:34:30;9.84;;;9.62;;
69837;SDS011;57135;51.992;4.476;2023-06-24T05:36:56;9.50;;;9.39;;
69837;SDS011;57135;51.992;4.476;2023-06-24T05:39:21;10.03;;;9.94;;
69837;SDS011;57135;51.992;4.476;2023-06-24T05:41:47;9.79;;;9.63;;
69837;SDS011;57135;51.992;4.476;2023-06-24T05:44:15;9.63;;;9.38;;
69837;SDS011;57135;51.992;4.476;2023-06-24T05:46:43;10.06;;;9.75;;
69837;SDS011;57135;51.992;4.476;2023-06-24T05:49:09;10.50;;;10.37;;
69837;SDS011;57135;51.992;4.476;2023-06-24T05:51:34;10.05;;;9.98;;
69837;SDS011;57135;51.992;4.476;2023-06-24T05:54:00;10.67;;;10.52;;
69837;SDS011;57135;51.992;4.476;2023-06-24T05:56:25;10.13;;;9.98;;
69837;SDS011;57135;51.992;4.476;2023-06-24T05:58:51;10.60;;;10.45;;
69837;SDS011;57135;51.992;4.476;2023-06-24T06:01:17;10.19;;;10.05;;
69837;SDS011;57135;51.992;4.476;2023-06-24T06:03:42;10.54;;;10.42;;
69837;SDS011;57135;51.992;4.476;2023-06-24T06:06:08;11.08;;;10.89;;
69837;SDS011;57135;51.992;4.476;2023-06-24T06:08:33;10.37;;;10.20;;
69837;SDS011;57135;51.992;4.476;2023-06-24T06:10:59;10.72;;;10.56;;
69837;SDS011;57135;51.992;4.476;2023-06-24T06:13:27;10.59;;;10.42;;
69837;SDS011;57135;51.992;4.476;2023-06-24T06:15:53;10.98;;;10.73;;
69837;SDS011;57135;51.992;4.476;2023-06-24T06:18:18;11.09;;;10.85;;
69837;SDS011;57135;51.992;4.476;2023-06-24T06:20:44;10.82;;;10.61;;
69837;SDS011;57135;51.992;4.476;2023-06-24T06:23:09;11.57;;;11.37;;
69837;SDS011;57135;51.992;4.476;2023-06-24T06:25:35;12.41;;;12.12;;
69837;SDS011;57135;51.992;4.476;2023-06-24T06:28:02;11.81;;;11.65;;
69837;SDS011;57135;51.992;4.476;2023-06-24T06:30:28;11.38;;;11.20;;
69837;SDS011;57135;51.992;4.476;2023-06-24T06:32:53;11.81;;;11.55;;
69837;SDS011;57135;51.992;4.476;2023-06-24T06:35:19;12.40;;;12.13;;
69837;SDS011;57135;51.992;4.476;2023-06-24T06:37:44;12.30;;;11.94;;
69837;SDS011;57135;51.992;4.476;2023-06-24T06:40:12;11.79;;;11.36;;
69837;SDS011;57135;51.992;4.476;2023-06-24T06:42:38;11.51;;;11.28;;
69837;SDS011;57135;51.992;4.476;2023-06-24T06:45:04;10.97;;;10.79;;
69837;SDS011;57135;51.992;4.476;2023-06-24T06:47:29;11.42;;;11.16;;
69837;SDS011;57135;51.992;4.476;2023-06-24T06:49:55;11.52;;;11.14;;
69837;SDS011;57135;51.992;4.476;2023-06-24T06:52:20;11.65;;;11.45;;
69837;SDS011;57135;51.992;4.476;2023-06-24T06:54:46;11.28;;;11.13;;
69837;SDS011;57135;51.992;4.476;2023-06-24T06:57:11;11.57;;;11.39;;
69837;SDS011;57135;51.992;4.476;2023-06-24T06:59:37;11.31;;;11.08;;
69837;SDS011;57135;51.992;4.476;2023-06-24T07:02:02;11.73;;;11.47;;
69837;SDS011;57135;51.992;4.476;2023-06-24T07:04:28;11.04;;;10.82;;
69837;SDS011;57135;51.992;4.476;2023-06-24T07:06:53;11.19;;;10.96;;
69837;SDS011;57135;51.992;4.476;2023-06-24T07:09:19;11.43;;;11.26;;
69837;SDS011;57135;51.992;4.476;2023-06-24T07:11:45;11.06;;;10.82;;
69837;SDS011;57135;51.992;4.476;2023-06-24T07:14:10;11.23;;;11.03;;
69837;SDS011;57135;51.992;4.476;2023-06-24T07:16:35;10.90;;;10.76;;
69837;SDS011;57135;51.992;4.476;2023-06-24T07:19:01;10.57;;;10.42;;
69837;SDS011;57135;51.992;4.476;2023-06-24T07:21:27;11.27;;;11.03;;
69837;SDS011;57135;51.992;4.476;2023-06-24T07:23:52;10.73;;;10.45;;
69837;SDS011;57135;51.992;4.476;2023-06-24T07:26:17;10.91;;;10.60;;
69837;SDS011;57135;51.992;4.476;2023-06-24T07:28:43;10.71;;;10.56;;
69837;SDS011;57135;51.992;4.476;2023-06-24T07:31:08;11.09;;;10.89;;
69837;SDS011;57135;51.992;4.476;2023-06-24T07:33:35;11.32;;;11.05;;
69837;SDS011;57135;51.992;4.476;2023-06-24T07:36:01;11.26;;;11.05;;
69837;SDS011;57135;51.992;4.476;2023-06-24T07:38:28;10.84;;;10.62;;
69837;SDS011;57135;51.992;4.476;2023-06-24T07:40:53;11.29;;;11.02;;
69837;SDS011;57135;51.992;4.476;2023-06-24T07:43:19;11.38;;;11.15;;
69837;SDS011;57135;51.992;4.476;2023-06-24T07:45:44;10.77;;;10.53;;
69837;SDS011;57135;51.992;4.476;2023-06-24T07:48:10;11.97;;;11.57;;
69837;SDS011;57135;51.992;4.476;2023-06-24T07:50:35;10.73;;;10.45;;
69837;SDS011;57135;51.992;4.476;2023-06-24T07:53:01;10.23;;;10.20;;
69837;SDS011;57135;51.992;4.476;2023-06-24T07:55:27;10.24;;;10.13;;
69837;SDS011;57135;51.992;4.476;2023-06-24T07:57:53;10.02;;;9.86;;
69837;SDS011;57135;51.992;4.476;2023-06-24T08:00:18;10.30;;;10.10;;
69837;SDS011;57135;51.992;4.476;2023-06-24T08:02:44;10.82;;;10.59;;
69837;SDS011;57135;51.992;4.476;2023-06-24T08:05:09;9.90;;;9.74;;
69837;SDS011;57135;51.992;4.476;2023-06-24T08:07:35;9.52;;;9.37;;
69837;SDS011;57135;51.992;4.476;2023-06-24T08:10:02;9.88;;;9.78;;
69837;SDS011;57135;51.992;4.476;2023-06-24T08:12:27;9.69;;;9.63;;
69837;SDS011;57135;51.992;4.476;2023-06-24T08:14:53;9.76;;;9.68;;
69837;SDS011;57135;51.992;4.476;2023-06-24T08:17:18;9.94;;;9.94;;
69837;SDS011;57135;51.992;4.476;2023-06-24T08:19:44;10.33;;;10.21;;
69837;SDS011;57135;51.992;4.476;2023-06-24T08:22:09;11.05;;;10.82;;
69837;SDS011;57135;51.992;4.476;2023-06-24T08:24:36;11.08;;;10.81;;
69837;SDS011;57135;51.992;4.476;2023-06-24T08:27:01;11.63;;;11.41;;
69837;SDS011;57135;51.992;4.476;2023-06-24T08:29:27;10.71;;;10.56;;
69837;SDS011;57135;51.992;4.476;2023-06-24T08:31:52;9.65;;;9.53;;
69837;SDS011;57135;51.992;4.476;2023-06-24T08:34:18;9.78;;;9.72;;
69837;SDS011;57135;51.992;4.476;2023-06-24T08:36:43;9.91;;;9.82;;
69837;SDS011;57135;51.992;4.476;2023-06-24T08:39:09;10.29;;;10.14;;
69837;SDS011;57135;51.992;4.476;2023-06-24T08:41:34;10.54;;;10.36;;
69837;SDS011;57135;51.992;4.476;2023-06-24T08:44:00;10.28;;;10.06;;
69837;SDS011;57135;51.992;4.476;2023-06-24T08:46:25;10.05;;;9.95;;
69837;SDS011;57135;51.992;4.476;2023-06-24T08:48:55;10.81;;;10.63;;
69837;SDS011;57135;51.992;4.476;2023-06-24T08:51:27;10.40;;;10.38;;
69837;SDS011;57135;51.992;4.476;2023-06-24T08:53:55;10.46;;;10.31;;
69837;SDS011;57135;51.992;4.476;2023-06-24T08:56:20;9.79;;;9.67;;
69837;SDS011;57135;51.992;4.476;2023-06-24T08:58:46;10.15;;;10.04;;
69837;SDS011;57135;51.992;4.476;2023-06-24T09:01:11;9.73;;;9.59;;
69837;SDS011;57135;51.992;4.476;2023-06-24T09:03:37;9.52;;;9.32;;
69837;SDS011;57135;51.992;4.476;2023-06-24T09:06:03;9.68;;;9.52;;
69837;SDS011;57135;51.992;4.476;2023-06-24T09:08:28;9.45;;;9.40;;
69837;SDS011;57135;51.992;4.476;2023-06-24T09:10:54;9.92;;;9.75;;
69837;SDS011;57135;51.992;4.476;2023-06-24T09:13:56;9.45;;;9.39;;
69837;SDS011;57135;51.992;4.476;2023-06-24T09:16:19;10.02;;;9.86;;
69837;SDS011;57135;51.992;4.476;2023-06-24T09:18:48;9.50;;;9.44;;
69837;SDS011;57135;51.992;4.476;2023-06-24T09:21:21;9.27;;;9.16;;
69837;SDS011;57135;51.992;4.476;2023-06-24T09:23:53;8.44;;;8.40;;
69837;SDS011;57135;51.992;4.476;2023-06-24T09:26:22;9.18;;;9.18;;
69837;SDS011;57135;51.992;4.476;2023-06-24T09:28:48;9.21;;;9.15;;
69837;SDS011;57135;51.992;4.476;2023-06-24T09:31:14;9.17;;;9.13;;
69837;SDS011;57135;51.992;4.476;2023-06-24T09:33:40;9.13;;;9.10;;
69837;SDS011;57135;51.992;4.476;2023-06-24T09:36:05;8.97;;;8.92;;
69837;SDS011;57135;51.992;4.476;2023-06-24T09:38:37;9.34;;;9.34;;
69837;SDS011;57135;51.992;4.476;2023-06-24T09:41:06;9.35;;;9.30;;
69837;SDS011;57135;51.992;4.476;2023-06-24T09:43:35;9.18;;;9.13;;
69837;SDS011;57135;51.992;4.476;2023-06-24T09:46:03;10.37;;;10.32;;
69837;SDS011;57135;51.992;4.476;2023-06-24T09:48:29;9.96;;;9.87;;
69837;SDS011;57135;51.992;4.476;2023-06-24T09:50:56;9.48;;;9.31;;
69837;SDS011;57135;51.992;4.476;2023-06-24T09:53:26;9.49;;;9.38;;
69837;SDS011;57135;51.992;4.476;2023-06-24T09:55:55;8.57;;;8.48;;
69837;SDS011;57135;51.992;4.476;2023-06-24T09:58:22;9.14;;;9.06;;
69837;SDS011;57135;51.992;4.476;2023-06-24T10:00:49;9.54;;;9.33;;
69837;SDS011;57135;51.992;4.476;2023-06-24T10:03:15;9.13;;;9.09;;
69837;SDS011;57135;51.992;4.476;2023-06-24T10:05:41;8.97;;;8.90;;
69837;SDS011;57135;51.992;4.476;2023-06-24T10:08:08;9.54;;;9.36;;
69837;SDS011;57135;51.992;4.476;2023-06-24T10:10:35;9.84;;;9.72;;
69837;SDS011;57135;51.992;4.476;2023-06-24T10:13:01;8.99;;;8.97;;
69837;SDS011;57135;51.992;4.476;2023-06-24T10:15:26;9.05;;;9.03;;
69837;SDS011;57135;51.992;4.476;2023-06-24T10:17:52;9.30;;;9.23;;
69837;SDS011;57135;51.992;4.476;2023-06-24T10:20:26;9.03;;;8.97;;
69837;SDS011;57135;51.992;4.476;2023-06-24T10:22:52;10.21;;;10.00;;
69837;SDS011;57135;51.992;4.476;2023-06-24T10:25:18;10.48;;;10.30;;
69837;SDS011;57135;51.992;4.476;2023-06-24T10:27:43;10.04;;;9.92;;
69837;SDS011;57135;51.992;4.476;2023-06-24T10:30:18;9.41;;;9.27;;
69837;SDS011;57135;51.992;4.476;2023-06-24T10:32:50;8.60;;;8.56;;
69837;SDS011;57135;51.992;4.476;2023-06-24T10:35:24;8.90;;;8.88;;
69837;SDS011;57135;51.992;4.476;2023-06-24T10:37:58;8.82;;;8.69;;
69837;SDS011;57135;51.992;4.476;2023-06-24T10:40:38;9.97;;;9.93;;
69837;SDS011;57135;51.992;4.476;2023-06-24T10:45:49;9.94;;;9.81;;
69837;SDS011;57135;51.992;4.476;2023-06-24T10:48:16;9.34;;;9.32;;
69837;SDS011;57135;51.992;4.476;2023-06-24T10:50:44;9.52;;;9.51;;
69837;SDS011;57135;51.992;4.476;2023-06-24T10:53:10;9.47;;;9.41;;
69837;SDS011;57135;51.992;4.476;2023-06-24T10:55:37;8.64;;;8.54;;
69837;SDS011;57135;51.992;4.476;2023-06-24T10:58:10;8.91;;;8.85;;
69837;SDS011;57135;51.992;4.476;2023-06-24T11:00:38;8.51;;;8.48;;
69837;SDS011;57135;51.992;4.476;2023-06-24T11:03:07;8.91;;;8.86;;
69837;SDS011;57135;51.992;4.476;2023-06-24T11:05:34;8.88;;;8.80;;
69837;SDS011;57135;51.992;4.476;2023-06-24T11:08:04;9.30;;;9.27;;
69837;SDS011;57135;51.992;4.476;2023-06-24T11:10:30;9.19;;;9.18;;
69837;SDS011;57135;51.992;4.476;2023-06-24T11:12:56;8.59;;;8.51;;
69837;SDS011;57135;51.992;4.476;2023-06-24T11:15:23;7.94;;;7.88;;
69837;SDS011;57135;51.992;4.476;2023-06-24T11:17:52;8.59;;;8.53;;
69837;SDS011;57135;51.992;4.476;2023-06-24T11:20:18;8.27;;;8.20;;
69837;SDS011;57135;51.992;4.476;2023-06-24T11:22:44;8.04;;;7.88;;
69837;SDS011;57135;51.992;4.476;2023-06-24T11:25:16;7.57;;;7.57;;
69837;SDS011;57135;51.992;4.476;2023-06-24T11:27:43;8.14;;;8.04;;
69837;SDS011;57135;51.992;4.476;2023-06-24T11:30:08;8.03;;;7.96;;
69837;SDS011;57135;51.992;4.476;2023-06-24T11:32:35;7.51;;;7.49;;
69837;SDS011;57135;51.992;4.476;2023-06-24T11:35:01;7.59;;;7.59;;
69837;SDS011;57135;51.992;4.476;2023-06-24T11:37:30;7.54;;;7.50;;
69837;SDS011;57135;51.992;4.476;2023-06-24T11:40:04;7.33;;;7.33;;
69837;SDS011;57135;51.992;4.476;2023-06-24T11:42:37;7.60;;;7.59;;
69837;SDS011;57135;51.992;4.476;2023-06-24T11:45:05;7.25;;;7.24;;
69837;SDS011;57135;51.992;4.476;2023-06-24T11:47:33;7.31;;;7.24;;
69837;SDS011;57135;51.992;4.476;2023-06-24T11:49:59;6.97;;;6.95;;
69837;SDS011;57135;51.992;4.476;2023-06-24T12:00:29;7.97;;;7.96;;
69837;SDS011;57135;51.992;4.476;2023-06-24T12:03:10;8.04;;;7.99;;
69837;SDS011;57135;51.992;4.476;2023-06-24T12:05:37;8.70;;;8.65;;
69837;SDS011;57135;51.992;4.476;2023-06-24T12:08:06;9.11;;;9.05;;
69837;SDS011;57135;51.992;4.476;2023-06-24T12:10:34;8.57;;;8.53;;
69837;SDS011;57135;51.992;4.476;2023-06-24T12:13:00;9.29;;;9.19;;
69837;SDS011;57135;51.992;4.476;2023-06-24T12:15:27;9.86;;;9.66;;
69837;SDS011;57135;51.992;4.476;2023-06-24T12:17:53;9.50;;;9.34;;
69837;SDS011;57135;51.992;4.476;2023-06-24T12:20:19;10.92;;;10.81;;
69837;SDS011;57135;51.992;4.476;2023-06-24T12:22:46;10.06;;;9.87;;
69837;SDS011;57135;51.992;4.476;2023-06-24T12:25:13;9.74;;;9.60;;
69837;SDS011;57135;51.992;4.476;2023-06-24T12:27:38;9.54;;;9.51;;
69837;SDS011;57135;51.992;4.476;2023-06-24T12:30:05;9.86;;;9.73;;
69837;SDS011;57135;51.992;4.476;2023-06-24T12:32:32;10.53;;;10.37;;
69837;SDS011;57135;51.992;4.476;2023-06-24T12:34:57;10.40;;;10.20;;
69837;SDS011;57135;51.992;4.476;2023-06-24T12:37:22;11.39;;;11.29;;
69837;SDS011;57135;51.992;4.476;2023-06-24T12:39:48;10.68;;;10.42;;
69837;SDS011;57135;51.992;4.476;2023-06-24T12:42:16;10.80;;;10.63;;
69837;SDS011;57135;51.992;4.476;2023-06-24T12:44:41;11.19;;;10.95;;
69837;SDS011;57135;51.992;4.476;2023-06-24T12:47:07;12.14;;;11.84;;
69837;SDS011;57135;51.992;4.476;2023-06-24T12:49:32;10.61;;;10.53;;
69837;SDS011;57135;51.992;4.476;2023-06-24T12:51:58;11.41;;;11.13;;
69837;SDS011;57135;51.992;4.476;2023-06-24T12:54:23;11.95;;;11.64;;
69837;SDS011;57135;51.992;4.476;2023-06-24T12:56:49;11.96;;;11.76;;
69837;SDS011;57135;51.992;4.476;2023-06-24T12:59:14;11.38;;;11.26;;
69837;SDS011;57135;51.992;4.476;2023-06-24T13:01:40;12.35;;;12.10;;
69837;SDS011;57135;51.992;4.476;2023-06-24T13:04:09;12.12;;;11.94;;
69837;SDS011;57135;51.992;4.476;2023-06-24T13:06:35;12.45;;;12.18;;
69837;SDS011;57135;51.992;4.476;2023-06-24T13:09:01;11.64;;;11.34;;
69837;SDS011;57135;51.992;4.476;2023-06-24T13:11:27;11.32;;;11.13;;
69837;SDS011;57135;51.992;4.476;2023-06-24T13:13:52;11.47;;;11.20;;
69837;SDS011;57135;51.992;4.476;2023-06-24T13:16:18;12.12;;;11.90;;
69837;SDS011;57135;51.992;4.476;2023-06-24T13:18:43;11.34;;;10.99;;
69837;SDS011;57135;51.992;4.476;2023-06-24T13:21:08;11.36;;;11.16;;
69837;SDS011;57135;51.992;4.476;2023-06-24T13:23:34;10.46;;;10.45;;
69837;SDS011;57135;51.992;4.476;2023-06-24T13:26:02;10.86;;;10.83;;
69837;SDS011;57135;51.992;4.476;2023-06-24T13:28:28;10.91;;;10.70;;
69837;SDS011;57135;51.992;4.476;2023-06-24T13:30:53;9.49;;;9.42;;
69837;SDS011;57135;51.992;4.476;2023-06-24T13:33:19;10.19;;;10.02;;
69837;SDS011;57135;51.992;4.476;2023-06-24T13:35:45;10.61;;;10.49;;
69837;SDS011;57135;51.992;4.476;2023-06-24T13:38:10;10.58;;;10.40;;
69837;SDS011;57135;51.992;4.476;2023-06-24T13:40:37;10.95;;;10.81;;
69837;SDS011;57135;51.992;4.476;2023-06-24T13:43:03;10.25;;;10.06;;
69837;SDS011;57135;51.992;4.476;2023-06-24T13:45:28;11.34;;;11.15;;
69837;SDS011;57135;51.992;4.476;2023-06-24T13:47:54;11.68;;;11.48;;
69837;SDS011;57135;51.992;4.476;2023-06-24T13:50:20;10.36;;;10.36;;
69837;SDS011;57135;51.992;4.476;2023-06-24T13:52:46;11.17;;;11.12;;
69837;SDS011;57135;51.992;4.476;2023-06-24T13:55:11;10.90;;;10.70;;
69837;SDS011;57135;51.992;4.476;2023-06-24T13:57:36;10.91;;;10.62;;
69837;SDS011;57135;51.992;4.476;2023-06-24T14:00:02;10.78;;;10.75;;
69837;SDS011;57135;51.992;4.476;2023-06-24T14:02:28;11.14;;;10.87;;
69837;SDS011;57135;51.992;4.476;2023-06-24T14:04:54;11.55;;;11.25;;
69837;SDS011;57135;51.992;4.476;2023-06-24T14:07:20;12.14;;;11.85;;
69837;SDS011;57135;51.992;4.476;2023-06-24T14:09:45;12.05;;;11.71;;
69837;SDS011;57135;51.992;4.476;2023-06-24T14:12:11;11.83;;;11.49;;
69837;SDS011;57135;51.992;4.476;2023-06-24T14:14:36;12.28;;;11.97;;
69837;SDS011;57135;51.992;4.476;2023-06-24T14:17:03;12.13;;;11.87;;
69837;SDS011;57135;51.992;4.476;2023-06-24T14:19:29;11.97;;;11.73;;
69837;SDS011;57135;51.992;4.476;2023-06-24T14:21:54;10.61;;;10.56;;
69837;SDS011;57135;51.992;4.476;2023-06-24T14:24:20;9.79;;;9.78;;
69837;SDS011;57135;51.992;4.476;2023-06-24T14:26:45;9.69;;;9.62;;
69837;SDS011;57135;51.992;4.476;2023-06-24T14:29:14;10.93;;;10.59;;
69837;SDS011;57135;51.992;4.476;2023-06-24T14:31:40;11.59;;;11.14;;
69837;SDS011;57135;51.992;4.476;2023-06-24T14:34:05;10.98;;;10.69;;
69837;SDS011;57135;51.992;4.476;2023-06-24T14:36:31;10.23;;;10.22;;
69837;SDS011;57135;51.992;4.476;2023-06-24T14:38:56;9.94;;;9.72;;
69837;SDS011;57135;51.992;4.476;2023-06-24T14:41:22;10.12;;;9.87;;
69837;SDS011;57135;51.992;4.476;2023-06-24T14:43:47;9.88;;;9.75;;
69837;SDS011;57135;51.992;4.476;2023-06-24T14:46:12;9.68;;;9.68;;
69837;SDS011;57135;51.992;4.476;2023-06-24T14:48:38;9.95;;;9.87;;
69837;SDS011;57135;51.992;4.476;2023-06-24T14:51:03;9.48;;;9.27;;
69837;SDS011;57135;51.992;4.476;2023-06-24T14:53:29;11.04;;;10.64;;
69837;SDS011;57135;51.992;4.476;2023-06-24T14:55:54;10.55;;;10.36;;
69837;SDS011;57135;51.992;4.476;2023-06-24T14:58:20;9.85;;;9.85;;
69837;SDS011;57135;51.992;4.476;2023-06-24T15:00:45;10.00;;;9.93;;